Airfield :
LOGIN :

Register | Disclaimer

   EN    FR    IT 

 










Legend :    VFR   Marginal VFR   IFR   Intensive IFR   Very Intensive IFR
Visi :
Ceiling :
>= 8 km
>= 3000ft
5 to 8 km
1000 to 3000 ft
1500m to 5 km
500 to 1000 ft
800 to 1500m
200 to 500 ft
< 800m
< 200 ft
Symbols :   Thunderstorms  Fog  Heavy snow  Heavy precipitations  Wind > 20 kt
SIGMETs :     Misc.  Thunderstorms  Icing  Turbulence  Mountain Waves  Volcanic Ashes






- Airport Elevation : 65 ft
- IATA code : PIK


EGPK - Glasgow Prestwick

CURRENT METAR :
  • 041520Z 16016KT 9999 FEW015 SCT028 10/05 Q1013

EXPIRED METARs :
  • 041450Z 17017KT 9999 FEW015 SCT028 10/04 Q1014
  • 041420Z 17016KT 9999 FEW015 SCT028 10/04 Q1014
  • 041350Z 17016KT 9999 FEW018 SCT030 11/04 Q1014
  • 041320Z 17016KT 9999 FEW018 SCT030 11/04 Q1014
  • 041250Z 17015KT 9999 FEW018 SCT030 11/05 Q1014

TAF TAF EGPK
Valid from the 04 at 12:00 until the 05 at 12:00 UTC


041055Z 0412/0512 17009KT 9999 SCT030
PROB40
TEMPO 0412/0418 19015G25KT
PROB40
TEMPO 0500/0512 18018G28KT



MET'MAP, your aeronautical weather chart ! - Copyright ORBIFLY December 2007 - Disclaimer

ORBIFLY MET'MAP TEAM :

Programming & Development : Alexandra Zaïnal
Concept & original design : Baudouin d'Aumeries
Assistance for programming : Marc-Olivier Méhu
Technical & hardware support : Manuel Goepfert

Contact : metmap@orbifly.com




SOURCES & CREDITS :

   NOAA